createdAt,value
2018-10-21T00:02:23.796Z,101495.72
2018-10-21T00:05:26.712Z,101497.93
2018-10-21T00:08:29.709Z,101495.55
2018-10-21T00:11:32.719Z,101497.30
2018-10-21T00:14:35.681Z,101500.83
2018-10-21T00:17:38.650Z,101505.08
2018-10-21T00:20:42.469Z,101503.30
2018-10-21T00:23:45.456Z,101503.06
2018-10-21T00:26:48.446Z,101497.34
2018-10-21T00:29:51.419Z,101500.38
2018-10-21T00:32:54.414Z,101495.70
2018-10-21T00:35:57.308Z,101499.64
2018-10-21T00:39:00.266Z,101495.63
2018-10-21T00:42:03.192Z,101488.91
2018-10-21T00:45:07.083Z,101486.98
2018-10-21T00:48:09.969Z,101479.28
2018-10-21T00:51:12.930Z,101467.89
2018-10-21T00:54:16.392Z,101458.93
2018-10-21T00:57:19.379Z,101462.08
2018-10-21T01:00:22.386Z,101462.83
2018-10-21T01:03:25.405Z,101465.55
2018-10-21T01:06:28.396Z,101466.11
2018-10-21T01:09:31.354Z,101472.73
2018-10-21T01:12:34.279Z,101471.27
2018-10-21T01:15:37.271Z,101474.41
2018-10-21T01:18:40.225Z,101477.44
2018-10-21T01:21:43.179Z,101488.78
2018-10-21T01:24:46.089Z,101480.95
2018-10-21T01:27:49.081Z,101484.11
2018-10-21T01:30:51.998Z,101478.30
2018-10-21T01:33:54.960Z,101477.81
2018-10-21T01:36:58.077Z,101482.64
2018-10-21T01:40:41.563Z,101488.80
2018-10-21T01:43:44.539Z,101485.40
2018-10-21T01:46:47.442Z,101485.75
2018-10-21T01:49:50.371Z,101474.80
2018-10-21T01:52:54.241Z,101476.55
2018-10-21T01:55:57.221Z,101478.75
2018-10-21T01:59:00.152Z,101476.92
2018-10-21T02:02:03.093Z,101478.19
2018-10-21T02:05:06.609Z,101475.16
2018-10-21T02:08:09.678Z,101475.88
2018-10-21T02:11:12.647Z,101474.59
2018-10-21T02:14:15.621Z,101482.55
2018-10-21T02:17:18.606Z,101487.91
2018-10-21T02:20:22.098Z,101482.11
2018-10-21T02:23:25.048Z,101482.09
2018-10-21T02:26:28.127Z,101477.77
2018-10-21T02:29:30.989Z,101469.88
2018-10-21T02:32:33.941Z,101472.10
2018-10-21T02:35:36.885Z,101474.25
2018-10-21T02:38:39.927Z,101467.55
2018-10-21T02:41:55.889Z,101466.63
2018-10-21T02:44:58.889Z,101461.48
2018-10-21T02:48:01.859Z,101458.40
2018-10-21T02:51:04.995Z,101456.63
2018-10-21T02:54:08.240Z,101449.16
2018-10-21T02:57:12.391Z,101447.79
2018-10-21T03:00:15.335Z,101441.69
2018-10-21T03:03:18.417Z,101445.56
2018-10-21T03:06:21.376Z,101442.47
2018-10-21T03:09:24.608Z,101439.88
2018-10-21T03:12:27.614Z,101440.69
2018-10-21T03:15:30.550Z,101429.88
2018-10-21T03:18:33.620Z,101431.33
2018-10-21T03:21:36.642Z,101436.30
2018-10-21T03:24:39.618Z,101440.26
2018-10-21T03:27:42.666Z,101430.16
2018-10-21T03:30:45.590Z,101425.08
2018-10-21T03:33:48.572Z,101416.29
2018-10-21T03:36:51.456Z,101425.11
2018-10-21T03:39:54.405Z,101425.26
2018-10-21T03:42:57.370Z,101411.61
2018-10-21T03:46:00.364Z,101418.27
2018-10-21T03:49:03.338Z,101414.83
2018-10-21T03:52:06.377Z,101414.69
2018-10-21T03:55:09.383Z,101415.55
2018-10-21T03:58:12.453Z,101418.19
2018-10-21T04:01:15.278Z,101422.20
2018-10-21T04:04:18.297Z,101419.15
2018-10-21T04:07:21.245Z,101417.30
2018-10-21T04:10:24.376Z,101419.87
2018-10-21T04:13:27.396Z,101416.84
2018-10-21T04:16:30.411Z,101423.87
2018-10-21T04:19:33.403Z,101413.77
2018-10-21T04:22:55.573Z,101413.39
2018-10-21T04:25:58.544Z,101398.42
2018-10-21T04:29:01.476Z,101400.94
2018-10-21T04:32:04.521Z,101401.27
2018-10-21T04:35:07.587Z,101401.33
2018-10-21T04:38:32.355Z,101396.81
2018-10-21T04:41:35.329Z,101401.80
2018-10-21T04:44:38.310Z,101393.91
2018-10-21T04:47:41.427Z,101389.07
2018-10-21T04:50:44.777Z,101388.86
2018-10-21T04:53:47.850Z,101388.86
2018-10-21T04:56:50.809Z,101383.69
2018-10-21T04:59:53.733Z,101389.47
2018-10-21T05:02:56.672Z,101376.31
2018-10-21T05:05:59.647Z,101380.17
2018-10-21T05:09:02.815Z,101378.28
2018-10-21T05:12:06.027Z,101380.50
2018-10-21T05:15:09.041Z,101375.33
2018-10-21T05:18:11.974Z,101382.45
2018-10-21T05:21:14.934Z,101375.02
2018-10-21T05:24:17.893Z,101371.92
2018-10-21T05:27:20.863Z,101374.97
2018-10-21T05:30:23.836Z,101382.80
2018-10-21T05:33:26.810Z,101372.22
2018-10-21T05:36:29.747Z,101376.59
2018-10-21T05:39:32.694Z,101378.81
2018-10-21T05:42:36.179Z,101365.52
2018-10-21T05:45:39.170Z,101364.06
2018-10-21T05:48:42.164Z,101370.17
2018-10-21T05:51:46.311Z,101371.05
2018-10-21T05:54:49.251Z,101372.05
2018-10-21T05:57:52.237Z,101375.19
2018-10-21T06:00:55.185Z,101384.82
2018-10-21T06:03:58.514Z,101378.66
2018-10-21T06:07:01.455Z,101384.41
2018-10-21T06:10:04.968Z,101382.10
2018-10-21T06:13:08.084Z,101392.20
2018-10-21T06:16:11.077Z,101393.13
2018-10-21T06:19:18.098Z,101393.64
2018-10-21T06:22:21.007Z,101398.42
2018-10-21T06:25:24.009Z,101398.52
2018-10-21T06:28:27.038Z,101402.03
2018-10-21T06:31:29.984Z,101398.47
2018-10-21T06:34:32.960Z,101412.95
2018-10-21T06:37:35.966Z,101414.31
2018-10-21T06:40:38.941Z,101419.63
2018-10-21T06:43:41.911Z,101418.20
2018-10-21T06:46:44.849Z,101415.63
2018-10-21T06:49:47.779Z,101423.07
2018-10-21T06:52:50.766Z,101427.84
2018-10-21T06:55:53.710Z,101429.98
2018-10-21T06:58:57.083Z,101435.01
2018-10-21T07:02:00.103Z,101443.83
2018-10-21T07:05:03.246Z,101441.45
2018-10-21T07:08:06.126Z,101439.78
2018-10-21T07:11:09.144Z,101444.89
2018-10-21T07:14:12.122Z,101443.63
2018-10-21T07:17:15.064Z,101433.56
2018-10-21T07:20:18.081Z,101438.33
2018-10-21T07:23:21.002Z,101440.14
2018-10-21T07:26:23.970Z,101442.89
2018-10-21T07:29:26.962Z,101438.03
2018-10-21T07:32:29.905Z,101439.27
2018-10-21T07:35:32.873Z,101434.08
2018-10-21T07:38:35.830Z,101438.98
2018-10-21T07:41:38.836Z,101438.03
2018-10-21T07:44:41.799Z,101442.03
2018-10-21T07:47:44.751Z,101444.33
2018-10-21T07:50:47.687Z,101439.43
2018-10-21T07:53:50.661Z,101437.23
2018-10-21T07:56:53.602Z,101441.23
2018-10-21T07:59:56.561Z,101440.81
2018-10-21T08:02:59.555Z,101445.77
2018-10-21T08:06:32.202Z,101443.14
2018-10-21T08:09:35.130Z,101440.53
2018-10-21T08:12:38.101Z,101443.68
2018-10-21T08:15:41.716Z,101444.55
2018-10-21T08:18:44.688Z,101442.41
2018-10-21T08:21:47.709Z,101438.50
2018-10-21T08:24:50.825Z,101440.31
2018-10-21T08:27:53.843Z,101444.30
2018-10-21T08:30:56.751Z,101443.02
2018-10-21T08:33:59.793Z,101442.61
2018-10-21T08:37:02.687Z,101441.38
2018-10-21T08:40:06.111Z,101438.31
2018-10-21T08:43:08.978Z,101437.86
2018-10-21T08:46:12.008Z,101441.48
2018-10-21T08:49:15.036Z,101445.91
2018-10-21T08:52:17.935Z,101443.33
2018-10-21T08:55:20.882Z,101449.98
2018-10-21T08:58:23.862Z,101444.65
2018-10-21T09:01:26.897Z,101436.84
2018-10-21T09:04:29.850Z,101439.09
2018-10-21T09:07:32.751Z,101437.77
2018-10-21T09:10:35.729Z,101436.92
2018-10-21T09:13:38.661Z,101437.80
2018-10-21T09:16:41.636Z,101436.08
2018-10-21T09:19:44.603Z,101437.41
2018-10-21T09:22:47.496Z,101439.25
2018-10-21T09:25:50.486Z,101432.16
2018-10-21T09:28:53.467Z,101436.16
2018-10-21T09:31:56.433Z,101441.47
2018-10-21T09:34:59.384Z,101435.73
2018-10-21T09:38:02.307Z,101436.59
2018-10-21T09:41:05.294Z,101429.09
2018-10-21T09:44:08.979Z,101434.39
2018-10-21T09:47:12.014Z,101437.03
2018-10-21T09:50:15.068Z,101430.87
2018-10-21T09:53:18.036Z,101430.42
2018-10-21T09:56:21.858Z,101437.92
2018-10-21T09:59:24.878Z,101430.00
2018-10-21T10:02:33.681Z,101425.98
2018-10-21T10:05:36.602Z,101418.05
2018-10-21T10:08:39.578Z,101411.85
2018-10-21T10:11:43.018Z,101411.40
2018-10-21T10:14:45.959Z,101408.31
2018-10-21T10:17:48.995Z,101405.57
2018-10-21T10:20:51.949Z,101397.11
2018-10-21T10:23:55.395Z,101396.45
2018-10-21T10:26:58.577Z,101388.66
2018-10-21T10:30:01.732Z,101391.28
2018-10-21T10:33:05.152Z,101386.80
2018-10-21T10:36:08.274Z,101384.59
2018-10-21T10:39:11.530Z,101384.48
2018-10-21T10:42:14.693Z,101379.10
2018-10-21T10:45:17.830Z,101381.73
2018-10-21T10:48:20.982Z,101378.84
2018-10-21T10:51:23.939Z,101372.28
2018-10-21T10:54:27.050Z,101374.61
2018-10-21T10:57:30.164Z,101372.20
2018-10-21T11:00:33.251Z,101370.17
2018-10-21T11:03:36.363Z,101369.48
2018-10-21T11:06:39.497Z,101354.83
2018-10-21T11:09:42.722Z,101359.34
2018-10-21T11:12:45.846Z,101351.47
2018-10-21T11:15:48.963Z,101350.32
2018-10-21T11:18:52.266Z,101357.52
2018-10-21T11:21:55.418Z,101350.88
2018-10-21T11:24:58.360Z,101340.34
2018-10-21T11:28:01.676Z,101342.91
2018-10-21T11:31:05.172Z,101334.90
2018-10-21T11:34:08.615Z,101335.83
2018-10-21T11:37:12.605Z,101331.03
2018-10-21T11:40:15.634Z,101323.59
2018-10-21T11:43:18.593Z,101324.90
2018-10-21T11:46:21.608Z,101323.38
2018-10-21T11:49:24.666Z,101314.16
2018-10-21T11:52:27.657Z,101309.46
2018-10-21T11:55:37.162Z,101305.27
2018-10-21T11:58:40.105Z,101300.05
2018-10-21T12:01:43.354Z,101298.78
2018-10-21T12:04:46.850Z,101290.81
2018-10-21T12:07:50.436Z,101281.02
2018-10-21T12:10:54.048Z,101280.94
2018-10-21T12:13:57.437Z,101276.83
2018-10-21T12:17:00.577Z,101272.09
2018-10-21T12:20:04.100Z,101274.97
2018-10-21T12:23:10.668Z,101271.06
2018-10-21T12:26:14.137Z,101260.00
2018-10-21T12:29:17.465Z,101254.47
2018-10-21T12:32:20.447Z,101254.72
2018-10-21T12:35:23.921Z,101254.50
2018-10-21T12:38:30.310Z,101252.11
2018-10-21T12:41:33.954Z,101249.63
2018-10-21T12:44:37.551Z,101247.67
2018-10-21T12:47:40.926Z,101248.71
2018-10-21T12:50:44.134Z,101249.73
2018-10-21T12:53:47.266Z,101246.38
2018-10-21T12:56:50.434Z,101239.59
2018-10-21T12:59:53.474Z,101235.08
2018-10-21T13:02:56.502Z,101232.78
2018-10-21T13:05:59.550Z,101233.87
2018-10-21T13:09:04.591Z,101231.91
2018-10-21T13:12:07.961Z,101234.25
2018-10-21T13:15:11.107Z,101227.34
2018-10-21T13:18:14.318Z,101234.02
2018-10-21T13:21:17.518Z,101224.19
2018-10-21T13:24:20.557Z,101217.20
2018-10-21T13:27:23.766Z,101212.42
2018-10-21T13:30:26.834Z,101218.03
2018-10-21T13:33:29.859Z,101207.44
2018-10-21T13:36:33.582Z,101204.85
2018-10-21T13:39:37.418Z,101210.21
2018-10-21T13:42:41.956Z,101198.12
2018-10-21T13:45:45.910Z,101195.87
2018-10-21T13:48:49.377Z,101193.37
2018-10-21T13:51:53.010Z,101194.56
2018-10-21T13:54:56.609Z,101184.24
2018-10-21T13:58:00.346Z,101187.57
2018-10-21T14:01:04.306Z,101187.03
2018-10-21T14:04:08.227Z,101188.31
2018-10-21T14:07:11.663Z,101184.70
2018-10-21T14:10:15.014Z,101183.61
2018-10-21T14:13:18.122Z,101175.41
2018-10-21T14:16:21.245Z,101170.81
2018-10-21T14:19:24.194Z,101167.75
2018-10-21T14:22:27.757Z,101176.30
2018-10-21T14:25:30.696Z,101173.53
2018-10-21T14:28:33.771Z,101171.92
2018-10-21T14:31:36.834Z,101164.43
2018-10-21T14:34:40.218Z,101161.52
2018-10-21T14:37:43.739Z,101160.06
2018-10-21T14:40:47.141Z,101158.31
2018-10-21T14:43:51.004Z,101155.41
2018-10-21T14:46:54.814Z,101150.31
2018-10-21T14:49:58.257Z,101146.17
2018-10-21T14:53:01.729Z,101147.00
2018-10-21T14:56:05.361Z,101144.84
2018-10-21T14:59:08.885Z,101143.06
2018-10-21T15:02:11.992Z,101138.64
2018-10-21T15:05:15.176Z,101140.17
2018-10-21T15:08:22.834Z,101136.00
2018-10-21T15:11:25.825Z,101135.02
2018-10-21T15:14:28.820Z,101134.39
2018-10-21T15:17:31.746Z,101134.06
2018-10-21T15:20:34.733Z,101134.31
2018-10-21T15:23:37.630Z,101127.09
2018-10-21T15:26:40.658Z,101130.20
2018-10-21T15:29:44.551Z,101128.57
2018-10-21T15:32:47.646Z,101127.77
2018-10-21T15:35:50.853Z,101131.48
2018-10-21T15:38:54.006Z,101127.59
2018-10-21T15:41:56.903Z,101124.56
2018-10-21T15:44:59.840Z,101121.98
2018-10-21T15:48:02.870Z,101122.96
2018-10-21T15:51:05.868Z,101117.72
2018-10-21T15:54:09.083Z,101124.45
2018-10-21T15:57:12.061Z,101121.41
2018-10-21T16:00:15.024Z,101121.50
2018-10-21T16:03:17.940Z,101117.58
2018-10-21T16:06:20.978Z,101120.25
2018-10-21T16:09:23.931Z,101120.75
2018-10-21T16:12:26.883Z,101115.97
2018-10-21T16:15:29.837Z,101118.20
2018-10-21T16:18:32.762Z,101124.45
2018-10-21T16:21:35.691Z,101122.30
2018-10-21T16:24:40.494Z,101124.52
2018-10-21T16:27:44.864Z,101122.81
2018-10-21T16:30:48.011Z,101117.59
2018-10-21T16:33:50.941Z,101118.53
2018-10-21T16:36:53.919Z,101123.38
2018-10-21T16:39:56.903Z,101119.86
2018-10-21T16:42:59.915Z,101121.70
2018-10-21T16:46:03.006Z,101124.85
2018-10-21T16:49:05.966Z,101113.86
2018-10-21T16:52:08.930Z,101112.14
2018-10-21T16:55:12.629Z,101108.63
2018-10-21T16:58:15.557Z,101109.11
2018-10-21T17:01:18.511Z,101113.59
2018-10-21T17:04:21.466Z,101118.02
2018-10-21T17:07:24.415Z,101121.92
2018-10-21T17:10:27.709Z,101123.20
2018-10-21T17:13:30.381Z,101124.09
2018-10-21T17:16:33.339Z,101118.02
2018-10-21T17:19:36.400Z,101118.52
2018-10-21T17:22:40.182Z,101125.09
2018-10-21T17:25:43.370Z,101130.09
2018-10-21T17:28:46.526Z,101130.08
2018-10-21T17:31:49.700Z,101126.61
2018-10-21T17:34:52.903Z,101132.34
2018-10-21T17:37:56.168Z,101131.47
2018-10-21T17:40:59.310Z,101138.09
2018-10-21T17:44:02.418Z,101134.66
2018-10-21T17:47:05.613Z,101142.17
2018-10-21T17:50:10.458Z,101135.15
2018-10-21T17:53:13.484Z,101136.48
2018-10-21T17:56:16.585Z,101144.03
2018-10-21T17:59:20.193Z,101139.27
2018-10-21T18:02:25.408Z,101144.61
2018-10-21T18:05:28.786Z,101146.77
2018-10-21T18:08:32.837Z,101145.45
2018-10-21T18:11:36.815Z,101149.78
2018-10-21T18:14:40.230Z,101147.21
2018-10-21T18:17:43.284Z,101147.27
2018-10-21T18:20:46.675Z,101147.27
2018-10-21T18:23:49.785Z,101146.34
2018-10-21T18:26:53.126Z,101146.86
2018-10-21T18:29:56.359Z,101112.19
2018-10-21T18:32:59.978Z,101150.39
2018-10-21T18:36:04.182Z,101145.94
2018-10-21T18:39:09.192Z,101146.42
2018-10-21T18:42:12.726Z,101150.84
2018-10-21T18:45:15.975Z,101147.78
2018-10-21T18:48:20.499Z,101145.25
2018-10-21T18:51:23.813Z,101136.42
2018-10-21T18:54:27.198Z,101141.64
2018-10-21T18:57:30.310Z,101137.63
2018-10-21T19:00:33.325Z,101134.62
2018-10-21T19:03:36.502Z,101138.63
2018-10-21T19:06:40.009Z,101132.85
2018-10-21T19:09:43.562Z,101127.12
2018-10-21T19:12:59.569Z,101133.84
2018-10-21T19:15:49.826Z,101140.80
2018-10-21T19:18:52.882Z,101139.11
2018-10-21T19:21:56.351Z,101135.58
2018-10-21T19:24:59.895Z,101134.29
2018-10-21T19:28:03.494Z,101139.55
2018-10-21T19:31:07.098Z,101141.34
2018-10-21T19:34:10.108Z,101137.38
2018-10-21T19:37:13.190Z,101134.25
2018-10-21T19:40:16.718Z,101131.56
2018-10-21T19:43:20.158Z,101133.41
2018-10-21T19:46:23.454Z,101141.72
2018-10-21T19:49:27.371Z,101136.02
2018-10-21T19:52:30.466Z,101140.91
2018-10-21T19:55:33.537Z,101139.65
2018-10-21T19:58:37.024Z,101135.71
2018-10-21T20:01:40.524Z,101138.30
2018-10-21T20:04:43.876Z,101129.84
2018-10-21T20:07:47.598Z,101129.40
2018-10-21T20:10:50.663Z,101130.45
2018-10-21T20:13:53.991Z,101136.12
2018-10-21T20:16:56.988Z,101136.45
2018-10-21T20:20:00.323Z,101140.39
2018-10-21T20:23:04.010Z,101146.67
2018-10-21T20:26:07.585Z,101147.32
2018-10-21T20:29:10.846Z,101145.55
2018-10-21T20:32:14.131Z,101148.17
2018-10-21T20:35:17.702Z,101146.44
2018-10-21T20:38:21.136Z,101141.19
2018-10-21T20:41:24.358Z,101141.58
2018-10-21T20:44:27.350Z,101138.94
2018-10-21T20:47:31.058Z,101142.91
2018-10-21T20:50:34.352Z,101144.62
2018-10-21T20:53:37.344Z,101144.70
2018-10-21T20:56:41.073Z,101151.30
2018-10-21T20:59:45.336Z,101155.33
2018-10-21T21:02:48.970Z,101156.64
2018-10-21T21:05:52.805Z,101164.99
2018-10-21T21:08:55.910Z,101163.67
2018-10-21T21:11:59.305Z,101165.02
2018-10-21T21:15:02.887Z,101162.82
2018-10-21T21:18:05.918Z,101166.36
2018-10-21T21:21:09.292Z,101161.94
2018-10-21T21:24:12.323Z,101156.20
2018-10-21T21:27:15.410Z,101159.72
2018-10-21T21:30:18.535Z,101166.36
2018-10-21T21:33:21.486Z,101175.16
2018-10-21T21:36:24.409Z,101172.91
2018-10-21T21:39:27.418Z,101173.84
2018-10-21T21:42:30.491Z,101179.12
2018-10-21T21:45:33.386Z,101188.41
2018-10-21T21:48:37.567Z,101189.75
2018-10-21T21:51:40.756Z,101184.43
2018-10-21T21:54:43.761Z,101183.98
2018-10-21T21:57:46.680Z,101178.27
2018-10-21T22:00:49.646Z,101181.80
2018-10-21T22:03:52.554Z,101178.73
2018-10-21T22:06:55.497Z,101175.63
2018-10-21T22:09:58.567Z,101181.38
2018-10-21T22:13:01.550Z,101172.13
2018-10-21T22:16:05.684Z,101171.23
2018-10-21T22:19:09.406Z,101169.00
2018-10-21T22:22:12.493Z,101174.31
2018-10-21T22:25:15.298Z,101164.17
2018-10-21T22:28:18.393Z,101169.00
2018-10-21T22:31:21.265Z,101160.66
2018-10-21T22:34:24.247Z,101163.73
2018-10-21T22:37:27.173Z,101165.94
2018-10-21T22:40:30.114Z,101160.62
2018-10-21T22:43:33.112Z,101165.52
2018-10-21T22:46:36.200Z,101159.31
2018-10-21T22:49:39.236Z,101166.38
2018-10-21T22:52:42.573Z,101161.50
2018-10-21T22:55:45.545Z,101161.08
2018-10-21T22:58:48.536Z,101160.68
2018-10-21T23:01:51.526Z,101157.59
2018-10-21T23:04:54.493Z,101158.48
2018-10-21T23:07:57.422Z,101165.09
2018-10-21T23:11:00.396Z,101164.64
2018-10-21T23:14:03.349Z,101161.12
2018-10-21T23:17:06.349Z,101152.78
2018-10-21T23:20:09.318Z,101159.37
2018-10-21T23:23:12.211Z,101165.95
2018-10-21T23:26:15.182Z,101169.89
2018-10-21T23:29:18.185Z,101160.19
2018-10-21T23:32:21.167Z,101159.72
2018-10-21T23:35:24.114Z,101158.00
2018-10-21T23:38:27.048Z,101165.95
2018-10-21T23:41:29.985Z,101173.42
2018-10-21T23:44:32.975Z,101172.98
2018-10-21T23:47:35.953Z,101176.94
2018-10-21T23:50:38.910Z,101176.95
2018-10-21T23:53:41.805Z,101183.50
2018-10-21T23:56:44.805Z,101181.72
2018-10-21T23:59:47.822Z,101186.56
